createdAt,value
2023-03-10T00:00:45.908Z,98210.53
2023-03-10T00:05:47.554Z,98217.06
2023-03-10T00:10:49.220Z,98209.16
2023-03-10T00:15:50.820Z,98195.78
2023-03-10T00:20:53.501Z,98189.50
2023-03-10T00:26:00.663Z,98179.16
2023-03-10T00:31:08.171Z,98176.69
2023-03-10T00:36:18.817Z,98175.56
2023-03-10T00:41:25.475Z,98184.31
2023-03-10T00:46:28.185Z,98179.66
2023-03-10T00:51:29.911Z,98170.63
2023-03-10T00:56:31.487Z,98165.47
2023-03-10T01:01:36.419Z,98164.59
2023-03-10T01:06:38.188Z,98164.31
2023-03-10T01:11:40.064Z,98127.16
2023-03-10T01:16:41.959Z,98111.06
2023-03-10T01:21:43.583Z,98093.34
2023-03-10T01:26:45.473Z,98087.88
2023-03-10T01:31:47.393Z,98085.41
2023-03-10T01:36:49.233Z,98090.31
2023-03-10T01:41:50.828Z,98093.59
2023-03-10T01:46:54.153Z,98085.16
2023-03-10T01:52:06.724Z,98084.88
2023-03-10T01:57:08.682Z,98074.25
2023-03-10T02:02:13.090Z,98069.06
2023-03-10T02:07:18.834Z,98059.22
2023-03-10T02:12:20.566Z,98038.50
2023-03-10T02:17:25.001Z,98033.31
2023-03-10T02:22:26.728Z,98034.94
2023-03-10T02:27:33.682Z,98043.94
2023-03-10T02:32:40.397Z,98040.66
2023-03-10T02:37:42.263Z,98036.59
2023-03-10T02:42:43.876Z,98058.69
2023-03-10T02:47:45.535Z,98087.06
2023-03-10T02:52:55.398Z,98106.72
2023-03-10T02:57:57.086Z,98119.25
2023-03-10T03:02:58.898Z,98123.31
2023-03-10T03:08:00.622Z,98129.34
2023-03-10T03:13:05.189Z,98131.84
2023-03-10T03:18:07.324Z,98128.00
2023-03-10T03:23:10.829Z,98137.78
2023-03-10T03:28:13.142Z,98119.25
2023-03-10T03:33:15.645Z,98121.44
2023-03-10T03:38:18.862Z,98099.56
2023-03-10T03:43:20.889Z,98104.69
2023-03-10T03:48:23.153Z,98098.38
2023-03-10T03:53:25.928Z,98109.63
2023-03-10T03:58:27.618Z,98113.47
2023-03-10T04:03:29.384Z,98111.59
2023-03-10T04:08:31.474Z,98110.00
2023-03-10T04:13:33.141Z,98104.53
2023-03-10T04:18:35.991Z,98108.63
2023-03-10T04:23:42.048Z,98094.44
2023-03-10T04:28:45.507Z,98054.28
2023-03-10T04:33:50.669Z,98024.28
2023-03-10T04:38:53.086Z,97990.44
2023-03-10T04:43:57.349Z,97972.97
2023-03-10T04:48:59.217Z,97952.81
2023-03-10T04:54:01.191Z,97930.44
2023-03-10T04:59:06.265Z,97914.38
2023-03-10T05:04:08.159Z,97894.19
2023-03-10T05:09:09.982Z,97885.19
2023-03-10T05:14:12.838Z,97872.09
2023-03-10T05:19:14.663Z,97862.56
2023-03-10T05:24:16.970Z,97862.25
2023-03-10T05:29:20.836Z,97881.34
2023-03-10T05:34:27.826Z,97899.59
2023-03-10T05:39:32.610Z,97918.41
2023-03-10T05:44:38.555Z,97954.97
2023-03-10T05:49:41.461Z,97982.50
2023-03-10T05:54:43.713Z,97984.66
2023-03-10T05:59:47.666Z,98008.38
2023-03-10T06:04:49.842Z,98006.16
2023-03-10T06:09:53.976Z,98005.41
2023-03-10T06:14:55.565Z,98019.91
2023-03-10T06:19:57.301Z,97995.03
2023-03-10T06:24:58.822Z,97981.69
2023-03-10T06:30:00.554Z,97953.31
2023-03-10T06:35:02.164Z,97953.84
2023-03-10T06:40:04.494Z,97936.63
2023-03-10T06:45:07.681Z,97957.38
2023-03-10T06:50:10.632Z,97953.28
2023-03-10T06:55:13.783Z,97928.84
2023-03-10T07:00:16.086Z,97916.59
2023-03-10T07:05:17.648Z,97912.28
2023-03-10T07:10:19.335Z,97993.84
2023-03-10T07:15:22.740Z,98064.16
2023-03-10T07:20:24.536Z,98097.34
2023-03-10T07:25:26.333Z,98037.09
2023-03-10T07:30:27.921Z,97943.22
2023-03-10T07:35:29.506Z,97894.16
2023-03-10T07:40:31.039Z,97878.06
2023-03-10T07:45:33.563Z,97929.91
2023-03-10T07:50:35.091Z,97917.84
2023-03-10T07:55:38.442Z,97912.66
2023-03-10T08:00:40.518Z,97916.44
2023-03-10T08:05:42.445Z,97924.84
2023-03-10T08:10:44.288Z,97938.47
2023-03-10T08:15:45.840Z,97935.00
2023-03-10T08:20:47.376Z,97951.66
2023-03-10T08:25:48.958Z,97959.28
2023-03-10T08:31:03.727Z,97977.84
2023-03-10T08:36:15.337Z,97983.03
2023-03-10T08:41:21.695Z,97983.59
2023-03-10T08:46:25.171Z,97987.97
2023-03-10T08:51:28.214Z,97975.16
2023-03-10T08:56:30.020Z,97987.72
2023-03-10T09:01:34.258Z,97989.38
2023-03-10T09:06:36.913Z,97997.81
2023-03-10T09:11:40.410Z,97998.66
2023-03-10T09:16:42.118Z,97988.00
2023-03-10T09:21:43.733Z,97981.13
2023-03-10T09:26:45.775Z,97991.44
2023-03-10T09:31:48.309Z,97993.34
2023-03-10T09:36:50.042Z,98000.25
2023-03-10T09:42:36.355Z,97997.75
2023-03-10T09:47:53.175Z,98002.09
2023-03-10T09:53:25.976Z,98016.56
2023-03-10T09:58:30.718Z,98015.22
2023-03-10T10:03:37.276Z,98018.75
2023-03-10T10:09:03.506Z,98027.56
2023-03-10T10:14:29.472Z,98038.78
2023-03-10T10:19:37.119Z,98015.53
2023-03-10T10:24:40.609Z,98006.75
2023-03-10T10:29:46.924Z,98015.66
2023-03-10T10:34:49.277Z,98012.19
2023-03-10T10:39:52.990Z,98039.28
2023-03-10T10:45:04.050Z,98032.63
2023-03-10T10:50:18.245Z,98049.22
2023-03-10T10:55:29.025Z,98060.44
2023-03-10T11:00:39.751Z,98081.88
2023-03-10T11:05:41.364Z,98088.78
2023-03-10T11:10:43.913Z,98092.66
2023-03-10T11:15:55.925Z,98088.56
2023-03-10T11:21:07.165Z,98086.91
2023-03-10T11:26:22.422Z,98093.72
2023-03-10T11:31:46.004Z,98100.63
2023-03-10T11:37:00.826Z,98090.44
2023-03-10T11:42:29.597Z,98066.03
2023-03-10T11:47:44.912Z,98075.25
2023-03-10T11:52:50.815Z,98068.72
2023-03-10T11:57:57.828Z,98073.19
2023-03-10T12:03:18.113Z,98081.44
2023-03-10T12:08:25.319Z,98076.78
2023-03-10T12:13:55.705Z,98073.78
2023-03-10T12:18:58.081Z,98084.47
2023-03-10T12:24:02.264Z,98087.53
2023-03-10T12:29:32.367Z,98094.91
2023-03-10T12:34:33.919Z,98090.84
2023-03-10T12:39:43.603Z,98099.06
2023-03-10T12:44:51.304Z,98100.22
2023-03-10T12:50:22.901Z,98090.63
2023-03-10T12:55:27.744Z,98084.88
2023-03-10T13:00:40.784Z,98071.22
2023-03-10T13:05:57.565Z,98062.75
2023-03-10T13:11:00.401Z,98070.63
2023-03-10T13:16:06.922Z,98077.16
2023-03-10T13:21:42.139Z,98090.56
2023-03-10T13:26:43.667Z,98088.66
2023-03-10T13:31:55.723Z,98107.78
2023-03-10T13:37:10.037Z,98136.13
2023-03-10T13:42:40.990Z,98127.09
2023-03-10T13:47:44.456Z,98142.59
2023-03-10T13:52:54.703Z,98154.78
2023-03-10T13:57:57.990Z,98138.09
2023-03-10T14:02:59.631Z,98155.75
2023-03-10T14:08:01.326Z,98156.75
2023-03-10T14:13:02.857Z,98183.44
2023-03-10T14:18:07.472Z,98203.03
2023-03-10T14:23:26.545Z,98216.50
2023-03-10T14:28:31.318Z,98214.88
2023-03-10T14:33:33.028Z,98233.53
2023-03-10T14:38:34.614Z,98269.41
2023-03-10T14:43:36.166Z,98312.47
2023-03-10T14:48:41.800Z,98334.75
2023-03-10T14:53:43.804Z,98372.16
2023-03-10T14:58:49.608Z,98396.56
2023-03-10T15:03:51.391Z,98411.31
2023-03-10T15:08:52.997Z,98440.19
2023-03-10T15:13:54.502Z,98438.91
2023-03-10T15:18:56.021Z,98445.59
2023-03-10T15:23:57.606Z,98488.72
2023-03-10T15:28:59.098Z,98577.38
2023-03-10T15:34:00.658Z,98691.63
2023-03-10T15:39:02.441Z,98783.19
2023-03-10T15:44:04.787Z,98890.69
2023-03-10T15:49:06.765Z,98885.00
2023-03-10T15:54:12.377Z,98906.66
2023-03-10T15:59:16.103Z,98900.34
2023-03-10T16:04:18.298Z,98849.19
2023-03-10T16:09:19.829Z,98735.38
2023-03-10T16:14:21.422Z,98695.88
2023-03-10T16:19:23.364Z,98654.88
2023-03-10T16:24:25.029Z,98663.69
2023-03-10T16:29:26.611Z,98678.53
2023-03-10T16:34:28.297Z,98705.09
2023-03-10T16:39:34.883Z,98710.31
2023-03-10T16:44:36.398Z,98714.19
2023-03-10T16:49:38.029Z,98686.81
2023-03-10T16:54:39.624Z,98640.59
2023-03-10T16:59:42.636Z,98648.69
2023-03-10T17:04:45.299Z,98660.66
2023-03-10T17:09:46.873Z,98635.00
2023-03-10T17:14:50.755Z,98592.53
2023-03-10T17:19:52.512Z,98626.34
2023-03-10T17:24:55.322Z,98661.94
2023-03-10T17:29:56.835Z,98629.25
2023-03-10T17:34:58.499Z,98605.28
2023-03-10T17:40:00.138Z,98604.97
2023-03-10T17:45:05.779Z,98600.59
2023-03-10T17:50:08.988Z,98610.25
2023-03-10T17:55:10.878Z,98620.25
2023-03-10T18:00:13.174Z,98622.06
2023-03-10T18:05:14.765Z,98679.59
2023-03-10T18:10:17.324Z,98673.31
2023-03-10T18:15:19.042Z,98692.97
2023-03-10T18:20:20.684Z,98690.28
2023-03-10T18:25:22.199Z,98659.19
2023-03-10T18:30:24.684Z,98643.75
2023-03-10T18:35:28.692Z,98728.56
2023-03-10T18:40:30.225Z,98752.19
2023-03-10T18:45:33.884Z,98787.97
2023-03-10T18:50:35.416Z,98806.88
2023-03-10T18:55:36.934Z,98804.94
2023-03-10T19:00:38.658Z,98782.00
2023-03-10T19:05:41.310Z,98766.03
2023-03-10T19:10:42.912Z,98755.25
2023-03-10T19:15:44.517Z,98755.38
2023-03-10T19:20:46.519Z,98791.78
2023-03-10T19:25:48.043Z,98792.03
2023-03-10T19:30:49.644Z,98829.59
2023-03-10T19:36:03.070Z,98889.59
2023-03-10T19:41:05.838Z,98915.31
2023-03-10T19:46:11.492Z,98958.13
2023-03-10T19:51:27.910Z,98993.72
2023-03-10T19:56:35.082Z,99039.72
2023-03-10T20:01:39.037Z,99062.53
2023-03-10T20:06:40.710Z,99007.28
2023-03-10T20:11:42.220Z,99042.84
2023-03-10T20:16:43.728Z,99059.66
2023-03-10T20:21:46.396Z,99063.31
2023-03-10T20:26:48.842Z,99083.78
2023-03-10T20:31:50.493Z,99092.84
2023-03-10T20:36:52.115Z,99096.25
2023-03-10T20:41:53.610Z,99117.56
2023-03-10T20:46:55.179Z,99131.22
2023-03-10T20:51:56.712Z,99165.59
2023-03-10T20:56:58.241Z,99171.84
2023-03-10T21:01:59.842Z,99170.00
2023-03-10T21:07:01.378Z,99142.66
2023-03-10T21:12:03.321Z,99179.72
2023-03-10T21:17:05.368Z,99179.53
2023-03-10T21:22:07.032Z,99197.47
2023-03-10T21:27:08.626Z,99193.06
2023-03-10T21:32:10.152Z,99209.31
2023-03-10T21:37:12.067Z,99180.78
2023-03-10T21:42:14.568Z,99169.13
2023-03-10T21:47:16.404Z,99177.72
2023-03-10T21:52:18.238Z,99175.25
2023-03-10T21:57:19.773Z,99157.94
2023-03-10T22:02:28.007Z,99185.22
2023-03-10T22:07:29.495Z,99192.09
2023-03-10T22:12:31.098Z,99189.84
2023-03-10T22:17:33.610Z,99204.03
2023-03-10T22:22:35.151Z,99214.03
2023-03-10T22:27:36.666Z,99201.97
2023-03-10T22:32:38.233Z,99222.59
2023-03-10T22:37:40.603Z,99241.94
2023-03-10T22:42:43.668Z,99245.09
2023-03-10T22:47:45.524Z,99260.69
2023-03-10T22:52:47.153Z,99251.13
2023-03-10T22:57:48.652Z,99255.69
2023-03-10T23:02:50.779Z,99273.13
2023-03-10T23:07:53.503Z,99274.78
2023-03-10T23:12:57.890Z,99268.69
2023-03-10T23:17:59.855Z,99267.56
2023-03-10T23:23:03.753Z,99258.34
2023-03-10T23:28:07.247Z,99244.53
2023-03-10T23:33:12.572Z,99251.53
2023-03-10T23:38:14.145Z,99277.44
2023-03-10T23:43:15.759Z,99283.84
2023-03-10T23:48:18.384Z,99283.66
2023-03-10T23:53:20.814Z,99284.25
2023-03-10T23:58:22.769Z,99305.78
